Time;durP1;ratioP1;P1;durP2;ratioP2;P2;SDS_P1;SDS_P2;PMS_P1;PMS_P2;Temp;Humidity;BMP_temperature;BMP_pressure;BME280_temperature;BME280_humidity;BME280_pressure;Samples;Min_cycle;Max_cycle;Signal;HPM_P1;HPM_P2
2022/01/17 00:01:43;;;;;;;82.13;27.85;;;;;;;3.61;100.00;102794.16;5030538;28;20025;-68
2022/01/17 00:04:10;;;;;;;85.25;27.45;;;;;;;3.63;100.00;102794.91;5032569;28;20056;-68
2022/01/17 00:06:37;;;;;;;86.13;27.50;;;;;;;3.63;100.00;102797.47;5025545;28;20065;-68
2022/01/17 00:09:06;;;;;;;77.45;27.75;;;;;;;3.64;100.00;102802.56;5017661;28;20037;-68
2022/01/17 00:11:33;;;;;;;72.97;26.65;;;;;;;3.63;100.00;102806.00;5026434;28;20514;-68
2022/01/17 00:13:59;;;;;;;86.57;28.40;;;;;;;3.61;100.00;102806.97;5025191;28;20025;-68
2022/01/17 00:16:33;;;;;;;74.05;26.90;;;;;;;3.62;100.00;102808.66;5020408;28;20052;-68
2022/01/17 00:21:43;;;;;;;86.05;28.48;;;;;;;3.65;100.00;102829.03;5029359;28;20037;-68
2022/01/17 00:24:09;;;;;;;96.22;30.58;;;;;;;3.67;100.00;102834.94;5028716;28;20709;-67
2022/01/17 00:26:35;;;;;;;91.22;30.73;;;;;;;3.66;100.00;102839.25;5017644;28;20029;-68
2022/01/17 00:29:00;;;;;;;87.85;28.98;;;;;;;3.61;100.00;102836.03;5017938;28;20487;-68
2022/01/17 00:31:26;;;;;;;91.55;31.38;;;;;;;3.66;100.00;102836.69;5042638;28;20165;-68
2022/01/17 00:33:52;;;;;;;88.35;30.48;;;;;;;3.61;100.00;102842.91;5027642;28;20029;-67
2022/01/17 00:36:17;;;;;;;98.80;30.90;;;;;;;3.68;100.00;102842.59;5038743;28;20040;-68
2022/01/17 00:38:43;;;;;;;109.40;33.22;;;;;;;3.61;100.00;102843.72;5007383;28;20036;-67
2022/01/17 00:41:09;;;;;;;101.70;31.85;;;;;;;3.66;100.00;102848.69;5031540;28;20076;-68
2022/01/17 00:43:35;;;;;;;104.35;31.00;;;;;;;3.72;100.00;102848.44;5023725;28;20043;-68
2022/01/17 00:46:01;;;;;;;101.05;33.85;;;;;;;3.70;100.00;102845.09;5016423;28;20112;-67
2022/01/17 00:48:27;;;;;;;102.70;34.63;;;;;;;3.72;100.00;102835.59;5031691;28;20029;-67
2022/01/17 00:50:52;;;;;;;97.60;31.27;;;;;;;3.64;100.00;102841.03;5026411;28;20030;-68
2022/01/17 00:53:18;;;;;;;104.65;33.45;;;;;;;3.70;100.00;102834.84;5012849;28;20167;-67
2022/01/17 00:55:44;;;;;;;102.05;32.88;;;;;;;3.69;100.00;102828.88;5023287;28;20034;-68
2022/01/17 00:58:10;;;;;;;120.75;34.78;;;;;;;3.68;100.00;102829.75;5006178;28;20610;-68
2022/01/17 01:00:37;;;;;;;104.70;33.35;;;;;;;3.71;100.00;102828.78;5027107;28;20124;-68
2022/01/17 01:03:03;;;;;;;107.80;34.90;;;;;;;3.73;100.00;102832.16;5020766;28;20021;-68
2022/01/17 01:05:29;;;;;;;118.68;36.53;;;;;;;3.84;100.00;102831.69;5019225;28;20050;-68
2022/01/17 01:07:54;;;;;;;104.22;34.78;;;;;;;3.80;100.00;102825.03;4999963;28;20057;-67
2022/01/17 01:10:21;;;;;;;105.22;34.67;;;;;;;3.72;100.00;102832.22;5021668;28;20132;-68
2022/01/17 01:12:49;;;;;;;114.22;35.95;;;;;;;3.64;100.00;102835.91;5020481;28;20053;-67
2022/01/17 01:15:44;;;;;;;122.75;36.60;;;;;;;3.64;100.00;102851.31;5021307;28;20044;-67
2022/01/17 01:18:17;;;;;;;127.80;36.72;;;;;;;3.87;100.00;102868.34;5027099;28;20029;-68
2022/01/17 01:28:44;;;;;;;116.82;35.88;;;;;;;3.72;100.00;102861.25;5015032;28;20033;-68
2022/01/17 01:31:17;;;;;;;116.38;37.53;;;;;;;3.80;100.00;102854.09;5009937;28;20056;-67
2022/01/17 01:33:51;;;;;;;124.00;38.08;;;;;;;3.82;100.00;102846.31;5018743;28;20033;-68
2022/01/17 01:36:21;;;;;;;125.50;40.00;;;;;;;3.82;100.00;102843.75;5011623;28;20689;-68
2022/01/17 01:38:47;;;;;;;129.63;39.13;;;;;;;3.73;100.00;102850.13;5024060;28;20033;-67
2022/01/17 01:41:13;;;;;;;130.05;41.00;;;;;;;3.68;100.00;102845.16;5024828;28;20025;-68
2022/01/17 01:43:39;;;;;;;135.85;40.92;;;;;;;3.82;100.00;102844.59;5024472;28;20506;-68
2022/01/17 01:46:05;;;;;;;123.15;38.00;;;;;;;3.85;100.00;102851.34;5020835;28;20037;-68
2022/01/17 01:48:36;;;;;;;132.50;39.08;;;;;;;3.85;100.00;102857.31;5021722;28;20063;-68
2022/01/17 01:51:02;;;;;;;123.68;39.22;;;;;;;3.86;100.00;102863.28;5007421;28;20183;-68
2022/01/17 01:53:28;;;;;;;131.80;41.63;;;;;;;3.93;100.00;102864.69;5030682;28;20041;-68
2022/01/17 01:55:55;;;;;;;119.88;38.83;;;;;;;3.80;100.00;102860.97;5039938;28;20030;-68
2022/01/17 01:58:23;;;;;;;138.80;42.13;;;;;;;3.99;100.00;102868.75;5020497;28;20237;-68
2022/01/17 02:00:49;;;;;;;129.50;40.53;;;;;;;3.98;100.00;102885.06;5013028;28;20030;-68
2022/01/17 02:03:15;;;;;;;145.20;40.45;;;;;;;3.96;100.00;102887.69;5015961;28;20088;-67
2022/01/17 02:05:43;;;;;;;127.30;40.33;;;;;;;4.02;100.00;102878.91;5038937;28;20037;-68
2022/01/17 02:08:13;;;;;;;127.32;40.65;;;;;;;4.04;100.00;102872.78;5012762;28;20540;-68
2022/01/17 02:10:39;;;;;;;130.13;40.25;;;;;;;4.04;100.00;102867.66;5045070;23;20040;-69
2022/01/17 02:13:05;;;;;;;141.25;42.05;;;;;;;3.90;100.00;102859.72;5044625;28;20078;-69
2022/01/17 02:15:31;;;;;;;137.40;42.97;;;;;;;3.90;100.00;102857.97;5033511;28;20209;-69
2022/01/17 02:17:59;;;;;;;136.57;42.30;;;;;;;3.98;100.00;102859.41;5022305;28;20092;-69
2022/01/17 02:21:10;;;;;;;136.50;43.28;;;;;;;3.90;100.00;102857.97;5044507;28;20033;-69
2022/01/17 02:23:20;;;;;;;135.50;42.28;;;;;;;3.97;100.00;102865.41;5041798;28;20029;-69
2022/01/17 02:25:45;;;;;;;135.20;42.78;;;;;;;3.88;100.00;102870.03;5026442;28;20064;-69
2022/01/17 02:28:11;;;;;;;138.18;42.47;;;;;;;3.95;100.00;102874.91;5044663;28;20032;-69
2022/01/17 02:30:37;;;;;;;122.93;39.40;;;;;;;3.98;100.00;102854.25;5027468;28;20033;-69
2022/01/17 02:33:03;;;;;;;137.25;42.75;;;;;;;4.02;100.00;102850.66;5026075;28;20041;-69
2022/01/17 02:35:30;;;;;;;129.73;41.13;;;;;;;3.99;100.00;102850.78;5044357;28;20036;-70
2022/01/17 02:37:56;;;;;;;150.60;43.70;;;;;;;4.13;100.00;102855.38;5043936;28;20075;-69
2022/01/17 02:40:23;;;;;;;128.63;39.13;;;;;;;4.12;100.00;102851.09;5044204;28;20037;-69
2022/01/17 02:42:51;;;;;;;131.35;41.92;;;;;;;4.21;100.00;102845.59;5021040;28;20111;-69
2022/01/17 02:45:35;;;;;;;119.60;38.75;;;;;;;4.08;100.00;102848.66;5012520;28;20040;-69
2022/01/17 02:48:07;;;;;;;128.38;40.70;;;;;;;4.09;100.00;102855.47;5034466;28;20095;-69
2022/01/17 02:50:36;;;;;;;133.50;41.30;;;;;;;4.07;100.00;102859.03;5025034;28;20033;-69
2022/01/17 02:53:16;;;;;;;132.23;42.38;;;;;;;4.01;100.00;102860.09;5010196;28;20486;-69
2022/01/17 02:55:57;;;;;;;128.10;38.75;;;;;;;4.13;100.00;102863.06;5022050;28;20065;-70
2022/01/17 02:58:26;;;;;;;127.65;41.17;;;;;;;4.02;100.00;102855.78;5022797;28;20070;-69
2022/01/17 03:00:55;;;;;;;123.72;42.15;;;;;;;4.08;100.00;102850.41;5044437;28;20025;-69
2022/01/17 03:03:27;;;;;;;134.07;42.42;;;;;;;4.16;100.00;102842.38;5040062;28;20090;-69
2022/01/17 03:05:55;;;;;;;132.55;43.05;;;;;;;4.14;100.00;102839.88;5029782;28;20057;-69
2022/01/17 03:08:26;;;;;;;129.43;40.58;;;;;;;4.19;100.00;102839.69;5043904;28;20031;-70
2022/01/17 03:10:54;;;;;;;129.20;41.95;;;;;;;4.15;100.00;102836.41;5028328;28;20106;-69
2022/01/17 03:13:29;;;;;;;123.32;39.75;;;;;;;4.16;100.00;102832.94;5044867;28;20044;-69
2022/01/17 03:15:57;;;;;;;134.48;42.50;;;;;;;4.11;100.00;102827.19;5026557;28;20118;-69
2022/01/17 03:18:25;;;;;;;128.02;42.30;;;;;;;4.12;100.00;102825.44;5014603;28;20032;-69
2022/01/17 03:20:51;;;;;;;116.43;40.55;;;;;;;4.11;100.00;102822.03;5045315;28;20025;-69
2022/01/17 03:23:17;;;;;;;144.85;44.28;;;;;;;4.14;100.00;102824.47;5025420;28;20047;-69
2022/01/17 03:25:43;;;;;;;143.82;41.53;;;;;;;4.14;100.00;102834.72;5016094;28;20036;-69
2022/01/17 03:28:08;;;;;;;125.55;40.45;;;;;;;4.16;100.00;102850.06;5045144;28;20017;-69
2022/01/17 03:30:34;;;;;;;119.53;42.28;;;;;;;4.12;100.00;102841.66;5026608;28;20033;-69
2022/01/17 03:33:01;;;;;;;124.25;42.30;;;;;;;4.19;100.00;102842.25;5025159;28;20123;-69
2022/01/17 03:35:27;;;;;;;117.80;39.65;;;;;;;4.14;100.00;102842.44;5030679;28;20070;-69
2022/01/17 03:37:53;;;;;;;110.88;39.92;;;;;;;4.09;100.00;102849.50;5040607;28;20048;-69
2022/01/17 03:40:19;;;;;;;113.38;39.80;;;;;;;4.02;100.00;102842.97;5027359;28;20021;-69
2022/01/17 03:42:45;;;;;;;119.90;38.80;;;;;;;4.13;100.00;102845.09;5044752;28;20056;-69
2022/01/17 03:45:11;;;;;;;125.07;42.17;;;;;;;4.02;100.00;102850.66;5043335;28;20052;-69
2022/01/17 03:47:41;;;;;;;185.23;66.03;;;;;;;4.09;100.00;102852.91;5030348;28;20037;-69
2022/01/17 03:50:12;;;;;;;275.70;94.05;;;;;;;4.10;100.00;102852.00;5030029;28;20044;-69
2022/01/17 03:52:40;;;;;;;189.90;63.42;;;;;;;4.10;100.00;102854.56;5048764;28;20040;-69
2022/01/17 03:55:10;;;;;;;267.83;89.65;;;;;;;4.10;100.00;102854.56;5046614;28;20139;-69
2022/01/17 03:57:36;;;;;;;231.65;76.65;;;;;;;4.13;100.00;102850.22;5048061;28;20033;-69
2022/01/17 04:00:06;;;;;;;284.33;97.38;;;;;;;4.06;100.00;102847.06;5034729;28;20419;-69
2022/01/17 04:02:38;;;;;;;178.98;64.35;;;;;;;4.05;100.00;102847.94;5050368;28;20049;-69
2022/01/17 04:05:04;;;;;;;173.80;64.00;;;;;;;3.94;100.00;102855.25;5032788;28;20041;-69
2022/01/17 04:07:30;;;;;;;155.18;56.63;;;;;;;3.90;100.00;102852.00;5045787;28;20063;-68
2022/01/17 04:09:56;;;;;;;365.70;116.45;;;;;;;3.90;100.00;102855.41;5049098;28;20513;-69
2022/01/17 04:12:21;;;;;;;216.18;70.72;;;;;;;3.91;100.00;102861.34;5030328;28;20087;-69
2022/01/17 04:14:47;;;;;;;135.70;47.10;;;;;;;3.97;100.00;102865.41;5029865;28;20060;-70
2022/01/17 04:17:13;;;;;;;115.82;41.67;;;;;;;3.92;100.00;102854.47;5050381;28;20047;-69
2022/01/17 04:19:41;;;;;;;105.95;38.00;;;;;;;3.94;100.00;102856.13;5031929;28;20474;-69
2022/01/17 04:22:10;;;;;;;100.20;36.65;;;;;;;3.90;100.00;102862.28;5049204;28;20569;-69
2022/01/17 04:24:36;;;;;;;109.53;43.03;;;;;;;3.81;100.00;102862.63;5047042;28;20028;-69
2022/01/17 04:27:02;;;;;;;113.00;40.42;;;;;;;3.89;100.00;102870.84;5014411;28;20772;-69
2022/01/17 04:29:28;;;;;;;97.00;37.65;;;;;;;3.82;100.00;102874.56;5029057;28;20063;-69
2022/01/17 04:31:53;;;;;;;103.30;37.53;;;;;;;3.96;100.00;102876.59;5032152;28;20033;-69
2022/01/17 04:34:19;;;;;;;92.82;34.33;;;;;;;3.92;100.00;102883.56;5029669;28;20434;-69
2022/01/17 04:36:48;;;;;;;95.60;35.40;;;;;;;3.97;100.00;102889.34;5032039;28;20130;-69
2022/01/17 04:39:16;;;;;;;104.53;34.78;;;;;;;4.00;100.00;102886.66;5041518;28;20052;-69
2022/01/17 04:41:43;;;;;;;99.72;36.10;;;;;;;3.89;100.00;102888.81;5045610;28;20551;-69
2022/01/17 04:45:11;;;;;;;102.15;35.95;;;;;;;3.89;100.00;102899.09;5029681;28;20134;-69
2022/01/17 04:47:05;;;;;;;111.85;38.00;;;;;;;3.82;100.00;102892.53;5015699;28;20126;-69
2022/01/17 04:49:30;;;;;;;111.28;36.42;;;;;;;3.89;100.00;102878.56;5046157;28;20201;-69
2022/01/17 04:51:56;;;;;;;107.38;37.38;;;;;;;3.96;100.00;102882.56;5028863;28;20082;-69
2022/01/17 04:57:03;;;;;;;98.63;34.70;;;;;;;3.83;100.00;102868.53;5046640;28;20036;-69
2022/01/17 04:59:28;;;;;;;107.00;35.90;;;;;;;3.87;100.00;102870.09;5019845;28;20025;-69
2022/01/17 05:01:54;;;;;;;97.15;34.70;;;;;;;3.82;100.00;102874.56;5047634;28;20024;-69
2022/01/17 05:04:20;;;;;;;95.25;35.75;;;;;;;3.77;100.00;102877.31;5026702;28;20055;-69
2022/01/17 05:06:45;;;;;;;90.97;33.97;;;;;;;3.79;100.00;102883.22;5044482;28;20024;-70
2022/01/17 05:09:11;;;;;;;98.40;35.08;;;;;;;3.71;100.00;102877.53;5052764;28;20135;-69
2022/01/17 05:11:37;;;;;;;100.78;33.67;;;;;;;3.70;100.00;102881.84;5047132;28;20538;-69
2022/01/17 05:14:02;;;;;;;93.53;33.45;;;;;;;3.70;100.00;102886.97;5016526;28;20041;-69
2022/01/17 05:16:40;;;;;;;91.88;32.42;;;;;;;3.71;100.00;102895.50;5029928;28;20033;-69
2022/01/17 05:21:49;;;;;;;83.72;31.98;;;;;;;3.69;100.00;102900.72;5048487;28;20146;-69
2022/01/17 05:24:18;;;;;;;84.40;30.08;;;;;;;3.62;100.00;102901.03;5046714;28;20033;-69
2022/01/17 05:26:44;;;;;;;87.65;33.70;;;;;;;3.78;100.00;102903.81;5042411;28;20047;-69
2022/01/17 05:29:10;;;;;;;83.85;31.55;;;;;;;3.69;100.00;102915.25;5048092;28;20487;-69
2022/01/17 05:31:35;;;;;;;92.40;34.90;;;;;;;3.74;100.00;102917.66;5045870;28;20043;-69
2022/01/17 05:34:01;;;;;;;86.63;36.83;;;;;;;3.86;100.00;102920.59;5047953;28;20028;-69
2022/01/17 05:36:27;;;;;;;86.70;33.80;;;;;;;3.76;100.00;102928.72;5030248;28;20185;-69
2022/01/17 05:38:52;;;;;;;78.35;29.73;;;;;;;3.80;100.00;102922.56;5047502;28;20025;-69
2022/01/17 05:41:19;;;;;;;78.60;28.55;;;;;;;3.74;100.00;102927.94;5027938;28;20032;-69
2022/01/17 05:43:48;;;;;;;78.57;29.40;;;;;;;3.88;100.00;102928.22;5034117;28;20033;-69
2022/01/17 05:46:14;;;;;;;79.88;28.65;;;;;;;3.87;100.00;102927.38;5029485;28;20127;-69
2022/01/17 05:48:40;;;;;;;84.47;28.70;;;;;;;3.76;100.00;102909.00;5044650;28;20116;-69
2022/01/17 05:51:05;;;;;;;89.40;29.08;;;;;;;3.90;100.00;102911.88;5028341;28;20525;-69
2022/01/17 05:53:32;;;;;;;86.38;30.23;;;;;;;3.84;100.00;102903.56;5046877;28;20033;-69
2022/01/17 05:55:58;;;;;;;73.90;28.40;;;;;;;3.76;100.00;102896.16;5046316;28;20033;-69
2022/01/17 05:58:24;;;;;;;84.57;30.02;;;;;;;3.81;100.00;102899.41;5045862;28;20471;-69
2022/01/17 06:00:53;;;;;;;83.82;29.48;;;;;;;3.80;100.00;102897.72;5045935;28;20052;-69
2022/01/17 06:03:18;;;;;;;83.68;29.77;;;;;;;3.96;100.00;102897.97;5044661;28;20490;-69
2022/01/17 06:05:48;;;;;;;75.45;28.85;;;;;;;3.89;100.00;102906.78;5044236;28;20049;-69
2022/01/17 06:08:13;;;;;;;83.38;30.20;;;;;;;3.86;100.00;102902.63;5020070;28;20039;-69
2022/01/17 06:10:39;;;;;;;78.70;32.78;;;;;;;3.84;100.00;102903.56;5025703;28;20041;-69
2022/01/17 06:13:05;;;;;;;79.03;31.58;;;;;;;3.79;100.00;102896.06;5045370;28;20372;-69
2022/01/17 06:15:31;;;;;;;90.60;33.08;;;;;;;3.80;100.00;102900.28;5042756;28;20056;-69
2022/01/17 06:17:57;;;;;;;84.18;32.33;;;;;;;3.82;100.00;102902.78;5043494;28;20660;-69
2022/01/17 06:20:22;;;;;;;100.53;35.05;;;;;;;3.87;100.00;102921.41;5029816;28;20024;-69
2022/01/17 06:22:48;;;;;;;101.85;37.55;;;;;;;3.83;100.00;102914.75;5039915;28;20033;-69
2022/01/17 06:25:14;;;;;;;97.18;33.67;;;;;;;3.95;100.00;102911.69;5025174;28;20064;-69
2022/01/17 06:27:40;;;;;;;132.85;43.38;;;;;;;3.95;100.00;102924.50;5031168;28;20086;-69
2022/01/17 06:30:07;;;;;;;102.90;34.72;;;;;;;3.94;100.00;102919.44;5045069;28;20451;-69
2022/01/17 06:32:34;;;;;;;98.88;35.33;;;;;;;3.90;100.00;102923.88;5042908;28;20036;-69
2022/01/17 06:35:03;;;;;;;76.20;30.83;;;;;;;3.85;100.00;102942.00;5044877;28;20021;-69
2022/01/17 06:37:29;;;;;;;87.50;30.85;;;;;;;3.94;100.00;102924.56;5042209;28;20036;-69
2022/01/17 06:39:55;;;;;;;80.38;29.98;;;;;;;3.95;100.00;102928.81;5043979;28;20029;-69
2022/01/17 06:42:22;;;;;;;80.15;29.70;;;;;;;3.91;100.00;102925.53;5043123;28;20024;-69
2022/01/17 06:44:49;;;;;;;83.13;29.73;;;;;;;3.89;100.00;102914.50;5031195;28;20410;-69
2022/01/17 06:47:14;;;;;;;81.80;29.45;;;;;;;3.95;100.00;102924.50;5046369;28;20033;-69
2022/01/17 06:49:40;;;;;;;76.93;28.35;;;;;;;3.97;100.00;102919.31;5042238;28;20032;-69
2022/01/17 06:52:06;;;;;;;80.93;28.30;;;;;;;4.00;100.00;102898.66;5046647;28;20183;-69
2022/01/17 06:54:32;;;;;;;72.68;28.40;;;;;;;4.00;100.00;102902.06;5034884;28;20587;-68
2022/01/17 06:56:57;;;;;;;78.60;27.92;;;;;;;3.98;100.00;102909.00;5046683;28;20025;-69
2022/01/17 06:59:23;;;;;;;69.88;27.38;;;;;;;3.97;100.00;102917.59;5031292;28;20031;-69
2022/01/17 07:01:49;;;;;;;72.70;26.67;;;;;;;3.89;100.00;102928.16;5025683;28;20068;-69
2022/01/17 07:04:15;;;;;;;70.70;27.27;;;;;;;3.93;100.00;102943.44;5038472;28;20060;-69
2022/01/17 07:06:41;;;;;;;75.18;27.70;;;;;;;3.99;100.00;102958.59;5008909;28;20029;-69
2022/01/17 07:09:14;;;;;;;82.75;28.10;;;;;;;4.02;100.00;102959.31;5030050;28;20033;-69
2022/01/17 07:11:43;;;;;;;77.95;27.33;;;;;;;4.04;100.00;102983.19;5046482;28;20640;-69
2022/01/17 07:14:11;;;;;;;76.93;29.58;;;;;;;3.97;100.00;102997.16;5028784;28;20033;-69
2022/01/17 07:16:39;;;;;;;73.43;28.52;;;;;;;4.08;99.84;102983.91;5030116;28;20032;-69
2022/01/17 07:19:06;;;;;;;82.30;28.35;;;;;;;4.09;99.97;102963.31;5045349;28;20063;-69
2022/01/17 07:21:32;;;;;;;71.55;30.15;;;;;;;4.08;99.78;102946.22;5051086;28;20040;-69
2022/01/17 07:23:59;;;;;;;79.13;28.23;;;;;;;4.09;100.00;102942.78;5029102;28;20399;-69
2022/01/17 07:26:25;;;;;;;78.88;29.02;;;;;;;4.05;100.00;102922.41;5011162;28;20041;-69
2022/01/17 07:28:51;;;;;;;84.78;29.60;;;;;;;3.89;100.00;102917.88;5032581;28;20045;-69
2022/01/17 07:31:23;;;;;;;91.22;30.67;;;;;;;4.02;100.00;102919.97;5043178;28;20075;-69
2022/01/17 07:33:49;;;;;;;85.80;31.05;;;;;;;4.00;100.00;102916.66;5042217;28;20048;-68
2022/01/17 07:36:19;;;;;;;77.68;30.83;;;;;;;4.06;99.50;102924.91;5035489;28;20071;-69
2022/01/17 07:38:46;;;;;;;87.45;28.95;;;;;;;3.94;99.61;102927.13;5046059;28;20087;-69
2022/01/17 07:41:12;;;;;;;85.07;29.50;;;;;;;4.05;100.00;102920.69;5054318;28;20025;-69
2022/01/17 07:43:38;;;;;;;89.85;30.15;;;;;;;3.84;99.64;102930.09;5048847;28;20568;-69
2022/01/17 07:46:18;;;;;;;92.80;31.75;;;;;;;3.88;100.00;102930.78;5028999;28;20029;-69
2022/01/17 07:51:11;;;;;;;84.50;31.60;;;;;;;3.90;100.00;102924.72;5047948;28;20598;-68
2022/01/17 07:53:37;;;;;;;90.00;31.52;;;;;;;3.84;100.00;102934.38;5050145;28;20031;-69
2022/01/17 07:56:03;;;;;;;89.25;32.10;;;;;;;3.83;100.00;102941.25;5038559;28;20036;-69
2022/01/17 07:58:29;;;;;;;89.43;31.63;;;;;;;3.87;100.00;102947.09;5049572;28;20033;-69
2022/01/17 08:00:54;;;;;;;81.60;30.15;;;;;;;3.88;100.00;102953.88;5029443;28;20029;-69
2022/01/17 08:03:20;;;;;;;83.32;31.17;;;;;;;3.89;100.00;102953.81;5049149;28;20026;-69
2022/01/17 08:05:46;;;;;;;85.97;32.33;;;;;;;3.90;100.00;102954.69;5028858;28;20029;-69
2022/01/17 08:08:11;;;;;;;85.05;29.15;;;;;;;3.84;100.00;102968.59;5034191;28;20089;-69
2022/01/17 08:10:38;;;;;;;86.85;31.17;;;;;;;3.97;100.00;102979.19;5036424;28;20670;-69
2022/01/17 08:13:07;;;;;;;86.75;30.90;;;;;;;4.05;100.00;102972.06;5048939;28;20021;-69
2022/01/17 08:15:32;;;;;;;89.72;29.77;;;;;;;4.05;100.00;102984.88;5027440;28;20087;-69
2022/01/17 08:17:58;;;;;;;86.07;31.60;;;;;;;4.13;100.00;102988.91;5050714;28;20587;-69
2022/01/17 08:20:24;;;;;;;82.53;31.15;;;;;;;4.19;100.00;102993.78;5049092;28;20020;-69
2022/01/17 08:22:50;;;;;;;85.00;33.28;;;;;;;4.20;100.00;103003.13;5043732;28;20041;-69
2022/01/17 08:25:16;;;;;;;82.72;32.25;;;;;;;4.20;100.00;103001.44;5038910;28;20652;-69
2022/01/17 08:27:42;;;;;;;83.03;32.92;;;;;;;4.23;100.00;102985.88;5043087;28;20025;-69
2022/01/17 08:30:09;;;;;;;93.38;33.33;;;;;;;4.14;100.00;102987.97;5024343;28;20095;-69
2022/01/17 08:32:35;;;;;;;82.28;32.67;;;;;;;4.23;100.00;102993.59;5028079;28;20040;-69
2022/01/17 08:35:01;;;;;;;89.15;34.30;;;;;;;4.28;100.00;103001.13;5049615;28;20029;-69
2022/01/17 08:37:27;;;;;;;93.28;32.85;;;;;;;4.27;100.00;103005.41;5047751;28;20032;-69
2022/01/17 08:39:53;;;;;;;98.55;36.40;;;;;;;4.27;100.00;103009.72;5028816;28;20013;-69
2022/01/17 08:42:19;;;;;;;84.72;33.33;;;;;;;4.30;100.00;102999.31;5047371;28;20077;-69
2022/01/17 08:44:49;;;;;;;86.78;35.17;;;;;;;4.35;100.00;102993.97;5049267;28;20075;-69
2022/01/17 08:47:18;;;;;;;97.07;35.35;;;;;;;4.42;100.00;102997.97;5026766;28;20521;-69
2022/01/17 08:49:45;;;;;;;93.57;36.00;;;;;;;4.35;100.00;102989.72;5044791;28;20249;-69
2022/01/17 08:52:12;;;;;;;90.78;35.92;;;;;;;4.43;100.00;102989.41;5045189;28;20513;-69
2022/01/17 08:54:43;;;;;;;101.00;36.50;;;;;;;4.38;100.00;102981.84;5027640;28;20029;-69
2022/01/17 08:57:09;;;;;;;82.55;33.03;;;;;;;4.48;100.00;102984.88;5031036;28;20032;-69
2022/01/17 08:59:35;;;;;;;95.00;35.67;;;;;;;4.44;100.00;102981.59;5047781;28;20036;-69
2022/01/17 09:02:01;;;;;;;88.97;36.78;;;;;;;4.48;100.00;102972.88;5047900;28;20029;-69
2022/01/17 09:04:27;;;;;;;93.22;36.17;;;;;;;4.39;100.00;102960.41;5029297;28;20047;-69
2022/01/17 09:06:52;;;;;;;94.10;35.55;;;;;;;4.56;100.00;102969.16;5046553;28;20039;-70
2022/01/17 09:09:18;;;;;;;101.43;38.58;;;;;;;4.55;100.00;102968.31;5048285;28;20033;-69
2022/01/17 09:11:44;;;;;;;94.90;36.47;;;;;;;4.65;100.00;102984.19;5045758;28;20337;-69
2022/01/17 09:14:10;;;;;;;95.70;35.60;;;;;;;4.77;99.73;102988.00;5042686;28;20090;-68
2022/01/17 09:16:37;;;;;;;90.22;35.33;;;;;;;4.79;99.71;102992.16;5033201;28;20036;-69
2022/01/17 09:19:04;;;;;;;89.95;35.35;;;;;;;4.76;99.23;102997.41;5024494;28;20029;-69
2022/01/17 09:21:31;;;;;;;96.10;34.97;;;;;;;4.72;99.51;103000.19;5035286;28;20491;-69
2022/01/17 09:23:58;;;;;;;88.65;34.90;;;;;;;4.78;99.03;102999.94;5048834;28;20029;-69
2022/01/17 09:26:28;;;;;;;90.47;36.40;;;;;;;4.76;100.00;102997.41;5035890;28;20391;-69
2022/01/17 09:28:55;;;;;;;96.20;38.70;;;;;;;4.84;100.00;102997.97;5045951;28;20167;-69
2022/01/17 09:31:22;;;;;;;89.97;37.33;;;;;;;4.81;99.78;103000.66;5048007;28;20029;-69
2022/01/17 09:33:48;;;;;;;97.90;38.53;;;;;;;4.83;99.63;103008.28;5048408;28;20244;-69
2022/01/17 09:36:14;;;;;;;90.88;34.05;;;;;;;4.88;99.30;103017.50;5037716;28;20052;-69
2022/01/17 09:38:41;;;;;;;89.00;35.08;;;;;;;4.76;99.51;103018.00;5045326;28;20402;-69
2022/01/17 09:41:07;;;;;;;86.55;34.63;;;;;;;4.86;100.00;103034.72;5045430;28;20029;-69
2022/01/17 09:43:36;;;;;;;83.25;35.00;;;;;;;4.94;99.67;103047.25;5042366;28;20055;-69
2022/01/17 09:46:02;;;;;;;87.18;35.75;;;;;;;4.86;99.81;103062.16;5053158;28;20791;-69
2022/01/17 09:48:38;;;;;;;89.90;37.30;;;;;;;4.88;100.00;103058.63;5032447;28;20119;-69
2022/01/17 09:51:19;;;;;;;87.20;35.67;;;;;;;4.90;99.89;103068.84;5029140;28;20036;-69
2022/01/17 09:53:45;;;;;;;88.60;35.67;;;;;;;4.99;99.30;103062.47;5028965;28;20037;-69
2022/01/17 09:56:12;;;;;;;87.43;36.75;;;;;;;5.01;99.60;103063.25;5025429;28;20037;-69
2022/01/17 09:58:41;;;;;;;90.75;34.58;;;;;;;5.05;99.91;103067.38;5042875;28;20040;-69
2022/01/17 10:01:08;;;;;;;77.10;33.00;;;;;;;5.20;99.30;103053.84;5046106;28;20446;-69
2022/01/17 10:03:34;;;;;;;84.63;34.90;;;;;;;5.25;98.91;103059.66;5048942;28;20052;-69
2022/01/17 10:06:00;;;;;;;86.55;34.90;;;;;;;5.21;98.68;103067.56;5029177;28;20033;-69
2022/01/17 10:08:26;;;;;;;88.75;34.95;;;;;;;5.29;98.77;103064.66;5030122;28;20076;-69
2022/01/17 10:10:58;;;;;;;84.18;34.15;;;;;;;5.36;97.69;103054.03;5047940;28;20028;-69
2022/01/17 10:13:34;;;;;;;71.40;31.80;;;;;;;5.37;98.23;103067.72;5043259;28;20669;-69
2022/01/17 10:16:04;;;;;;;81.78;34.47;;;;;;;5.42;97.74;103065.78;5024444;28;20108;-69
2022/01/17 10:18:38;;;;;;;81.93;33.35;;;;;;;5.39;97.69;103051.31;5045231;28;20504;-69
2022/01/17 10:21:26;;;;;;;81.70;34.38;;;;;;;5.31;97.81;103060.25;5045434;28;20016;-69
2022/01/17 10:24:15;;;;;;;79.53;33.67;;;;;;;5.36;97.93;103074.59;5023518;28;20044;-70
2022/01/17 10:37:16;;;;;;;74.53;32.65;;;;;;;5.31;97.77;103068.81;5032889;28;20056;-69
2022/01/17 10:39:55;;;;;;;75.10;30.70;;;;;;;5.36;97.89;103069.47;5031969;28;20451;-70
2022/01/17 10:42:22;;;;;;;71.78;30.10;;;;;;;5.37;98.08;103062.56;5032881;28;20350;-69
2022/01/17 10:44:48;;;;;;;72.18;30.38;;;;;;;5.34;98.10;103068.69;5031686;28;20029;-69
2022/01/17 10:47:27;;;;;;;62.42;29.00;;;;;;;5.29;98.36;103068.03;5046469;28;20020;-69
2022/01/17 10:50:00;;;;;;;67.47;29.38;;;;;;;5.31;98.56;103061.09;5004605;28;20108;-69
2022/01/17 10:53:00;;;;;;;68.38;30.30;;;;;;;5.40;98.84;103071.00;5030107;28;20488;-69
2022/01/17 10:55:30;;;;;;;71.25;29.23;;;;;;;5.43;99.15;103076.00;5033806;28;20050;-69
2022/01/17 10:58:02;;;;;;;62.30;27.95;;;;;;;5.36;99.03;103079.75;5029878;28;20087;-69
2022/01/17 11:00:40;;;;;;;65.03;27.53;;;;;;;5.45;99.07;103087.06;5046668;28;20025;-69
2022/01/17 11:03:12;;;;;;;65.57;27.00;;;;;;;5.37;99.00;103096.88;5028508;28;20465;-69
2022/01/17 11:05:40;;;;;;;60.83;27.40;;;;;;;5.41;98.95;103095.00;5028704;28;20053;-70
2022/01/17 11:08:09;;;;;;;69.53;27.85;;;;;;;5.47;98.39;103097.31;5027727;28;20121;-69
2022/01/17 11:10:43;;;;;;;66.72;26.38;;;;;;;5.53;98.50;103098.78;5027185;28;20399;-69
2022/01/17 11:13:15;;;;;;;55.10;25.00;;;;;;;5.49;98.70;103110.94;5045095;28;20398;-69
2022/01/17 11:15:44;;;;;;;54.53;24.30;;;;;;;5.41;98.79;103110.44;5046397;28;20040;-68
2022/01/17 11:18:24;;;;;;;67.90;26.85;;;;;;;5.54;98.56;103103.88;5045242;28;20033;-69
2022/01/17 11:20:55;;;;;;;60.60;24.00;;;;;;;5.63;98.08;103112.91;5026621;28;20092;-69
2022/01/17 11:23:24;;;;;;;55.90;24.75;;;;;;;5.47;98.13;103100.72;5046748;28;20036;-69
2022/01/17 11:25:54;;;;;;;55.70;23.90;;;;;;;5.43;98.02;103090.63;5026414;28;20457;-69
2022/01/17 11:28:22;;;;;;;53.50;24.60;;;;;;;5.52;97.90;103095.38;5043194;28;20021;-68
2022/01/17 11:30:51;;;;;;;56.03;23.40;;;;;;;5.46;97.74;103093.03;5008348;28;20041;-69
2022/01/17 11:33:16;;;;;;;53.88;22.15;;;;;;;5.48;98.42;103080.94;5029603;28;20060;-69
2022/01/17 11:35:44;;;;;;;60.47;23.20;;;;;;;5.39;98.35;103078.81;5029913;28;20118;-69
2022/01/17 11:38:19;;;;;;;50.40;22.45;;;;;;;5.42;97.89;103078.66;5045998;28;20041;-69
2022/01/17 11:40:45;;;;;;;46.90;21.52;;;;;;;5.47;98.14;103072.41;5052148;28;20032;-69